Portada
METAR-TAF:

METAR-TAF

Aeroports :

Bamako, Mali

latitud: 12-32N, longitud: 007-57W, altitud: 380 m

Observació

L'informe es va fer fa 19 minuts, a les 08:00 UTC
Vent 9 kt del Nord-Est
Temperatura 27°C
Humitat 14%
Pressió 1011 hPa
Visibilitat 10 km o més
sense núvols per sota de 1500 mi sense presència de cumulonimbus.

METAR: GABS 180800Z 05009KT CAVOK 27/M03 Q1011 NOSIG

Hora: 08:19 (08:19 UTC)

Pronòstic

L'informe es va fer fa 2 hores i 49 minuts, a les 05:30 UTC
Pronòstic vàlid del 18 a les 06 UTC al 19 a les 12 UTC
Vent 10 kt del Nord-Est
Visibilitat: 8000 m

TAF: GABS 180530Z 1806/1912 04010KT 8000 NSC

Observacions i pronòstics meteorològics de més de 4000 aeroports (METAR i TAF).

Les estacions disponibles són els punts grocs i vermells al mapa.

Posi el ratolí al punt desitjat per veure el nom de l'estació.

Feu clic per veure les observacions i els pronòstics meteorològics.

Per canviar el mapa: feu clic els botons verds amb una creu de color negre per apropar; al botó verd amb un guió per allunyar la imatge; o en les fletxes verdes per a mapes adjacents.


METAR-TAF: